createdAt,value
2023-02-02T00:00:44.288Z,954.13
2023-02-02T00:01:44.274Z,954.59
2023-02-02T00:02:44.315Z,955.15
2023-02-02T00:03:44.320Z,954.86
2023-02-02T00:04:44.227Z,955.00
2023-02-02T00:05:44.254Z,954.60
2023-02-02T00:06:44.216Z,953.99
2023-02-02T00:07:44.227Z,954.35
2023-02-02T00:08:44.187Z,954.82
2023-02-02T00:09:44.177Z,954.06
2023-02-02T00:10:44.188Z,954.19
2023-02-02T00:11:44.166Z,954.70
2023-02-02T00:12:44.157Z,955.43
2023-02-02T00:13:44.139Z,955.96
2023-02-02T00:14:44.124Z,956.05
2023-02-02T00:15:44.136Z,956.48
2023-02-02T00:16:44.128Z,956.44
2023-02-02T00:17:44.126Z,956.89
2023-02-02T00:18:44.083Z,956.69
2023-02-02T00:19:44.073Z,957.17
2023-02-02T00:20:44.068Z,957.69
2023-02-02T00:21:44.036Z,957.86
2023-02-02T00:22:44.036Z,957.84
2023-02-02T00:23:44.351Z,957.27
2023-02-02T00:24:44.310Z,957.36
2023-02-02T00:25:44.039Z,957.84
2023-02-02T00:26:44.024Z,957.60
2023-02-02T00:27:44.031Z,957.53
2023-02-02T00:28:44.269Z,957.54
2023-02-02T00:29:43.989Z,957.58
2023-02-02T00:30:44.039Z,957.34
2023-02-02T00:31:43.997Z,957.08
2023-02-02T00:32:44.259Z,957.12
2023-02-02T00:33:43.921Z,957.00
2023-02-02T00:34:43.911Z,956.94
2023-02-02T00:35:43.909Z,957.55
2023-02-02T00:36:43.898Z,957.46
2023-02-02T00:37:43.878Z,957.42
2023-02-02T00:38:43.862Z,957.29
2023-02-02T00:39:43.860Z,956.75
2023-02-02T00:40:43.847Z,957.56
2023-02-02T00:41:43.851Z,957.02
2023-02-02T00:42:43.810Z,956.90
2023-02-02T00:43:43.809Z,956.37
2023-02-02T00:44:43.789Z,956.47
2023-02-02T00:45:43.831Z,956.23
2023-02-02T00:46:43.791Z,956.19
2023-02-02T00:47:43.780Z,956.34
2023-02-02T00:48:43.761Z,956.47
2023-02-02T00:49:43.740Z,956.74
2023-02-02T00:50:43.723Z,956.45
2023-02-02T00:51:43.711Z,956.12
2023-02-02T00:52:43.747Z,956.80
2023-02-02T00:53:43.691Z,956.23
2023-02-02T00:54:43.721Z,955.88
2023-02-02T00:55:43.673Z,954.69
2023-02-02T00:56:43.658Z,954.58
2023-02-02T00:57:43.661Z,954.64
2023-02-02T00:58:43.660Z,955.37
2023-02-02T00:59:43.630Z,955.97
2023-02-02T01:00:43.654Z,956.53
2023-02-02T01:01:43.730Z,956.48
2023-02-02T01:02:43.603Z,955.73
2023-02-02T01:03:43.591Z,954.98
2023-02-02T01:04:43.557Z,954.64
2023-02-02T01:05:43.566Z,954.39
2023-02-02T01:06:43.546Z,954.97
2023-02-02T01:07:43.543Z,956.42
2023-02-02T01:08:43.511Z,957.93
2023-02-02T01:09:43.505Z,957.87
2023-02-02T01:10:43.502Z,957.99
2023-02-02T01:11:43.502Z,958.52
2023-02-02T01:12:43.500Z,958.59
2023-02-02T01:13:43.468Z,959.17
2023-02-02T01:14:43.461Z,958.54
2023-02-02T01:15:43.458Z,958.16
2023-02-02T01:16:43.473Z,958.95
2023-02-02T01:17:43.442Z,958.79
2023-02-02T01:18:43.411Z,959.03
2023-02-02T01:19:43.422Z,959.53
2023-02-02T01:20:43.392Z,957.86
2023-02-02T01:21:43.376Z,957.34
2023-02-02T01:22:43.382Z,957.71
2023-02-02T01:23:43.358Z,956.70
2023-02-02T01:24:43.356Z,955.60
2023-02-02T01:25:43.328Z,955.66
2023-02-02T01:26:43.365Z,955.59
2023-02-02T01:27:43.479Z,955.46
2023-02-02T01:28:43.303Z,955.90
2023-02-02T01:29:43.280Z,956.40
2023-02-02T01:30:43.278Z,956.53
2023-02-02T01:31:43.267Z,956.40
2023-02-02T01:32:43.262Z,955.88
2023-02-02T01:33:43.243Z,955.72
2023-02-02T01:34:43.232Z,955.70
2023-02-02T01:35:43.222Z,955.26
2023-02-02T01:36:43.220Z,954.47
2023-02-02T01:37:43.232Z,954.46
2023-02-02T01:38:43.197Z,954.40
2023-02-02T01:39:43.192Z,953.87
2023-02-02T01:40:43.163Z,954.32
2023-02-02T01:41:43.162Z,955.16
2023-02-02T01:42:43.146Z,955.04
2023-02-02T01:43:43.170Z,957.18
2023-02-02T01:44:43.123Z,960.40
2023-02-02T01:45:43.153Z,964.43
2023-02-02T01:46:43.103Z,966.51
2023-02-02T01:47:43.105Z,967.65
2023-02-02T01:48:43.077Z,969.83
2023-02-02T01:49:43.069Z,971.29
2023-02-02T01:50:43.055Z,972.76
2023-02-02T01:51:43.065Z,974.43
2023-02-02T01:52:43.044Z,977.45
2023-02-02T01:53:43.022Z,974.85
2023-02-02T01:54:43.014Z,973.91
2023-02-02T01:55:43.015Z,974.81
2023-02-02T01:56:43.004Z,974.34
2023-02-02T01:57:43.007Z,973.83
2023-02-02T01:58:42.966Z,973.48
2023-02-02T01:59:42.958Z,975.22
2023-02-02T02:00:42.963Z,975.77
2023-02-02T02:01:42.937Z,976.95
2023-02-02T02:02:42.957Z,977.57
2023-02-02T02:03:42.933Z,978.80
2023-02-02T02:04:42.896Z,979.39
2023-02-02T02:05:42.902Z,979.61
2023-02-02T02:06:42.886Z,977.62
2023-02-02T02:07:42.876Z,977.02
2023-02-02T02:08:42.884Z,974.79
2023-02-02T02:09:42.856Z,975.64
2023-02-02T02:10:42.833Z,977.27
2023-02-02T02:11:42.827Z,978.03
2023-02-02T02:12:42.844Z,978.84
2023-02-02T02:13:42.802Z,979.32
2023-02-02T02:14:42.794Z,978.67
2023-02-02T02:15:42.791Z,978.66
2023-02-02T02:16:42.912Z,978.98
2023-02-02T02:17:42.777Z,979.54
2023-02-02T02:18:42.747Z,979.59
2023-02-02T02:19:42.745Z,979.27
2023-02-02T02:20:42.720Z,979.77
2023-02-02T02:21:42.722Z,980.23
2023-02-02T02:22:42.716Z,980.89
2023-02-02T02:23:42.685Z,982.07
2023-02-02T02:24:42.676Z,983.41
2023-02-02T02:25:42.685Z,983.91
2023-02-02T02:26:42.672Z,982.91
2023-02-02T02:27:42.665Z,982.90
2023-02-02T02:28:42.636Z,981.25
2023-02-02T02:29:42.617Z,981.22
2023-02-02T02:30:42.680Z,980.79
2023-02-02T02:31:42.713Z,980.46
2023-02-02T02:32:42.595Z,979.69
2023-02-02T02:33:42.566Z,979.22
2023-02-02T02:34:42.587Z,979.25
2023-02-02T02:35:42.538Z,978.48
2023-02-02T02:36:42.527Z,976.79
2023-02-02T02:37:42.537Z,974.48
2023-02-02T02:38:42.506Z,974.86
2023-02-02T02:39:42.506Z,973.39
2023-02-02T02:40:42.482Z,973.47
2023-02-02T02:41:42.478Z,975.41
2023-02-02T02:42:42.476Z,977.51
2023-02-02T02:43:42.467Z,977.62
2023-02-02T02:44:42.455Z,977.18
2023-02-02T02:45:42.440Z,977.26
2023-02-02T02:46:42.419Z,976.63
2023-02-02T02:47:42.425Z,977.02
2023-02-02T02:48:42.408Z,977.39
2023-02-02T02:49:42.397Z,978.09
2023-02-02T02:50:42.376Z,977.40
2023-02-02T02:51:42.362Z,977.83
2023-02-02T02:52:42.354Z,978.60
2023-02-02T02:53:42.377Z,980.31
2023-02-02T02:54:42.329Z,980.55
2023-02-02T02:55:42.331Z,979.48
2023-02-02T02:56:42.309Z,977.57
2023-02-02T02:57:42.290Z,976.12
2023-02-02T02:58:42.288Z,975.84
2023-02-02T02:59:42.271Z,974.92
2023-02-02T03:00:42.252Z,974.38
2023-02-02T03:01:42.284Z,972.58
2023-02-02T03:02:42.322Z,970.10
2023-02-02T03:03:42.238Z,967.56
2023-02-02T03:04:42.209Z,965.59
2023-02-02T03:05:42.199Z,964.97
2023-02-02T03:06:42.199Z,964.47
2023-02-02T03:07:42.191Z,964.51
2023-02-02T03:08:42.177Z,964.19
2023-02-02T03:09:42.150Z,964.95
2023-02-02T03:10:42.155Z,964.86
2023-02-02T03:11:42.128Z,964.61
2023-02-02T03:12:42.130Z,964.91
2023-02-02T03:13:42.120Z,964.25
2023-02-02T03:14:42.091Z,964.41
2023-02-02T03:15:42.140Z,963.52
2023-02-02T03:16:42.082Z,963.29
2023-02-02T03:17:42.050Z,963.34
2023-02-02T03:18:42.063Z,962.85
2023-02-02T03:19:42.040Z,962.72
2023-02-02T03:20:42.035Z,962.54
2023-02-02T03:21:42.020Z,961.87
2023-02-02T03:22:42.020Z,961.69
2023-02-02T03:23:42.018Z,961.45
2023-02-02T03:24:41.981Z,961.46
2023-02-02T03:25:41.971Z,961.65
2023-02-02T03:26:41.980Z,961.26
2023-02-02T03:27:41.969Z,961.01
2023-02-02T03:28:41.960Z,960.71
2023-02-02T03:29:41.921Z,960.24
2023-02-02T03:30:41.970Z,960.35
2023-02-02T03:31:41.935Z,960.83
2023-02-02T03:32:41.917Z,961.98
2023-02-02T03:33:41.887Z,962.36
2023-02-02T03:34:41.872Z,962.74
2023-02-02T03:35:41.865Z,962.56
2023-02-02T03:36:41.851Z,963.19
2023-02-02T03:37:41.864Z,964.84
2023-02-02T03:38:41.843Z,964.98
2023-02-02T03:39:41.813Z,965.94
2023-02-02T03:40:41.804Z,965.49
2023-02-02T03:41:41.784Z,965.93
2023-02-02T03:42:41.779Z,966.53
2023-02-02T03:43:41.781Z,965.97
2023-02-02T03:44:41.754Z,965.84
2023-02-02T03:45:41.753Z,965.56
2023-02-02T03:46:41.776Z,964.47
2023-02-02T03:47:41.736Z,963.02
2023-02-02T03:48:41.705Z,963.27
2023-02-02T03:49:41.697Z,964.57
2023-02-02T03:50:41.685Z,964.42
2023-02-02T03:51:41.674Z,964.13
2023-02-02T03:52:41.675Z,965.33
2023-02-02T03:53:41.652Z,965.63
2023-02-02T03:54:41.645Z,965.59
2023-02-02T03:55:41.640Z,964.55
2023-02-02T03:56:41.624Z,964.75
2023-02-02T03:57:41.613Z,965.08
2023-02-02T03:58:41.615Z,965.24
2023-02-02T03:59:41.587Z,966.17
2023-02-02T04:00:41.577Z,967.08
2023-02-02T04:01:41.744Z,967.95
2023-02-02T04:02:41.567Z,969.07
2023-02-02T04:03:41.526Z,970.84
2023-02-02T04:04:41.524Z,972.33
2023-02-02T04:05:41.505Z,974.17
2023-02-02T04:06:41.495Z,975.78
2023-02-02T04:07:41.503Z,975.85
2023-02-02T04:08:41.486Z,976.62
2023-02-02T04:09:41.455Z,977.01
2023-02-02T04:10:41.455Z,978.15
2023-02-02T04:11:41.457Z,977.56
2023-02-02T04:12:41.434Z,978.19
2023-02-02T04:13:41.452Z,979.02
2023-02-02T04:14:41.415Z,978.18
2023-02-02T04:15:41.414Z,977.68
2023-02-02T04:16:41.396Z,977.80
2023-02-02T04:17:41.403Z,978.02
2023-02-02T04:18:41.404Z,976.67
2023-02-02T04:19:41.371Z,975.72
2023-02-02T04:20:41.350Z,976.59
2023-02-02T04:21:41.344Z,976.87
2023-02-02T04:22:41.332Z,977.15
2023-02-02T04:23:41.337Z,977.07
2023-02-02T04:24:41.297Z,977.43
2023-02-02T04:25:41.289Z,976.71
2023-02-02T04:26:41.355Z,976.95
2023-02-02T04:27:41.286Z,977.18
2023-02-02T04:28:41.246Z,976.62
2023-02-02T04:29:41.248Z,976.12
2023-02-02T04:30:41.245Z,976.57
2023-02-02T04:31:41.273Z,977.09
2023-02-02T04:32:41.241Z,977.54
2023-02-02T04:33:41.215Z,979.14
2023-02-02T04:34:41.187Z,979.90
2023-02-02T04:35:41.168Z,981.61
2023-02-02T04:36:41.178Z,981.81
2023-02-02T04:37:41.159Z,981.27
2023-02-02T04:38:41.158Z,980.01
2023-02-02T04:39:41.131Z,979.59
2023-02-02T04:40:41.131Z,979.64
2023-02-02T04:41:41.102Z,980.60
2023-02-02T04:42:41.121Z,980.22
2023-02-02T04:43:41.078Z,978.94
2023-02-02T04:44:41.080Z,978.48
2023-02-02T04:45:41.128Z,977.54
2023-02-02T04:46:41.054Z,978.21
2023-02-02T04:47:41.049Z,977.58
2023-02-02T04:48:41.043Z,977.68
2023-02-02T04:49:41.020Z,978.48
2023-02-02T04:50:41.003Z,978.91
2023-02-02T04:51:40.987Z,978.72
2023-02-02T04:52:41.003Z,978.92
2023-02-02T04:53:40.968Z,978.44
2023-02-02T04:54:40.970Z,977.94
2023-02-02T04:55:40.942Z,978.81
2023-02-02T04:56:40.931Z,979.93
2023-02-02T04:57:40.945Z,980.68
2023-02-02T04:58:40.920Z,980.73
2023-02-02T04:59:42.498Z,980.99
2023-02-02T05:00:40.895Z,980.81
2023-02-02T05:01:40.871Z,980.67
2023-02-02T05:02:40.881Z,980.26
2023-02-02T05:03:40.852Z,980.12
2023-02-02T05:04:40.922Z,980.83
2023-02-02T05:05:40.841Z,981.94
2023-02-02T05:06:40.811Z,982.56
2023-02-02T05:07:40.816Z,985.45
2023-02-02T05:08:40.803Z,986.07
2023-02-02T05:09:40.788Z,986.67
2023-02-02T05:10:40.768Z,987.74
2023-02-02T05:11:40.762Z,987.32
2023-02-02T05:12:40.753Z,986.08
2023-02-02T05:13:40.751Z,985.37
2023-02-02T05:14:40.725Z,985.65
2023-02-02T05:15:40.712Z,986.59
2023-02-02T05:16:40.785Z,987.25
2023-02-02T05:17:40.703Z,987.91
2023-02-02T05:18:40.695Z,988.45
2023-02-02T05:19:40.683Z,989.44
2023-02-02T05:20:40.656Z,989.64
2023-02-02T05:21:40.658Z,988.74
2023-02-02T05:22:40.643Z,986.59
2023-02-02T05:23:40.651Z,987.07
2023-02-02T05:24:40.613Z,986.42
2023-02-02T05:25:40.602Z,986.06
2023-02-02T05:26:40.631Z,984.77
2023-02-02T05:27:40.583Z,984.73
2023-02-02T05:28:40.580Z,984.91
2023-02-02T05:29:40.553Z,986.08
2023-02-02T05:30:40.598Z,986.13
2023-02-02T05:31:40.599Z,986.47
2023-02-02T05:32:40.530Z,987.76
2023-02-02T05:33:40.531Z,987.23
2023-02-02T05:34:40.503Z,987.07
2023-02-02T05:35:40.498Z,986.95
2023-02-02T05:36:40.480Z,986.67
2023-02-02T05:37:40.454Z,985.52
2023-02-02T05:38:40.492Z,985.17
2023-02-02T05:39:40.444Z,984.07
2023-02-02T05:40:40.415Z,984.12
2023-02-02T05:41:40.424Z,982.79
2023-02-02T05:42:40.417Z,980.93
2023-02-02T05:43:40.415Z,978.28
2023-02-02T05:44:40.402Z,975.95
2023-02-02T05:45:40.412Z,975.11
2023-02-02T05:46:40.365Z,976.03
2023-02-02T05:47:40.374Z,976.34
2023-02-02T05:48:40.347Z,975.19
2023-02-02T05:49:40.339Z,974.55
2023-02-02T05:50:40.330Z,974.35
2023-02-02T05:51:40.571Z,974.88
2023-02-02T05:52:40.585Z,975.98
2023-02-02T05:53:40.297Z,976.20
2023-02-02T05:54:40.266Z,976.63
2023-02-02T05:55:40.256Z,978.10
2023-02-02T05:56:40.245Z,979.48
2023-02-02T05:57:40.247Z,981.00
2023-02-02T05:58:40.267Z,980.92
2023-02-02T05:59:42.126Z,980.44
2023-02-02T06:00:40.205Z,981.24
2023-02-02T06:01:40.190Z,982.40
2023-02-02T06:02:40.193Z,982.69
2023-02-02T06:03:40.238Z,983.48
2023-02-02T06:04:40.166Z,984.73
2023-02-02T06:05:40.146Z,986.53
2023-02-02T06:06:40.127Z,986.01
2023-02-02T06:07:40.117Z,986.32
2023-02-02T06:08:40.125Z,984.84
2023-02-02T06:09:40.469Z,984.33
2023-02-02T06:10:40.114Z,983.50
2023-02-02T06:11:40.166Z,984.67
2023-02-02T06:12:40.060Z,984.92
2023-02-02T06:13:40.054Z,983.04
2023-02-02T06:14:40.037Z,982.38
2023-02-02T06:15:40.062Z,982.53
2023-02-02T06:16:40.011Z,982.46
2023-02-02T06:17:40.007Z,982.72
2023-02-02T06:18:40.025Z,982.43
2023-02-02T06:19:39.989Z,980.98
2023-02-02T06:20:39.970Z,979.22
2023-02-02T06:21:41.857Z,977.87
2023-02-02T06:22:39.982Z,977.36
2023-02-02T06:23:40.297Z,977.68
2023-02-02T06:24:39.960Z,977.38
2023-02-02T06:25:39.942Z,977.87
2023-02-02T06:26:39.918Z,977.90
2023-02-02T06:27:39.914Z,977.74
2023-02-02T06:28:39.873Z,976.80
2023-02-02T06:29:39.890Z,976.72
2023-02-02T06:30:39.941Z,976.26
2023-02-02T06:31:39.909Z,976.15
2023-02-02T06:32:39.838Z,974.71
2023-02-02T06:33:39.828Z,974.00
2023-02-02T06:34:39.819Z,972.91
2023-02-02T06:35:39.809Z,973.31
2023-02-02T06:36:39.791Z,973.05
2023-02-02T06:37:39.769Z,971.76
2023-02-02T06:38:39.780Z,970.92
2023-02-02T06:39:40.036Z,971.09
2023-02-02T06:40:39.752Z,970.81
2023-02-02T06:41:39.727Z,970.80
2023-02-02T06:42:42.523Z,969.51
2023-02-02T06:43:39.726Z,967.34
2023-02-02T06:44:39.699Z,966.43
2023-02-02T06:45:39.679Z,966.36
2023-02-02T06:46:39.708Z,966.07
2023-02-02T06:47:39.653Z,965.54
2023-02-02T06:48:39.659Z,964.48
2023-02-02T06:49:39.665Z,964.67
2023-02-02T06:50:39.650Z,964.71
2023-02-02T06:51:39.625Z,964.07
2023-02-02T06:52:39.606Z,963.05
2023-02-02T06:53:39.593Z,963.43
2023-02-02T06:54:39.590Z,964.28
2023-02-02T06:55:39.588Z,965.02
2023-02-02T06:56:39.553Z,966.00
2023-02-02T06:57:39.541Z,966.85
2023-02-02T06:58:39.543Z,967.80
2023-02-02T06:59:39.556Z,968.55
2023-02-02T07:00:39.541Z,968.55
2023-02-02T07:01:39.541Z,967.81
2023-02-02T07:02:39.546Z,967.87
2023-02-02T07:03:39.476Z,967.07
2023-02-02T07:04:39.481Z,966.73
2023-02-02T07:05:39.458Z,967.23
2023-02-02T07:06:39.443Z,967.32
2023-02-02T07:07:39.430Z,966.86
2023-02-02T07:08:39.421Z,966.73
2023-02-02T07:09:39.404Z,967.59
2023-02-02T07:11:11.284Z,967.81
2023-02-02T07:11:44.468Z,968.09
2023-02-02T07:12:40.394Z,967.75
2023-02-02T07:13:39.666Z,967.13
2023-02-02T07:14:39.381Z,967.05
2023-02-02T07:15:39.405Z,966.99
2023-02-02T07:16:39.360Z,966.33
2023-02-02T07:17:39.320Z,965.13
2023-02-02T07:18:39.332Z,964.67
2023-02-02T07:19:39.304Z,964.32
2023-02-02T07:20:39.295Z,963.17
2023-02-02T07:21:39.276Z,963.72
2023-02-02T07:22:39.534Z,963.60
2023-02-02T07:23:39.574Z,964.02
2023-02-02T07:24:39.244Z,964.34
2023-02-02T07:25:39.278Z,965.62
2023-02-02T07:26:39.271Z,965.69
2023-02-02T07:27:39.213Z,965.06
2023-02-02T07:28:39.520Z,964.87
2023-02-02T07:29:39.308Z,964.64
2023-02-02T07:30:39.235Z,965.90
2023-02-02T07:31:39.196Z,970.13
2023-02-02T07:32:39.153Z,967.91
2023-02-02T07:33:39.156Z,969.43
2023-02-02T07:34:39.152Z,974.25
2023-02-02T07:35:39.115Z,976.38
2023-02-02T07:36:39.115Z,975.60
2023-02-02T07:37:40.107Z,976.19
2023-02-02T07:38:39.114Z,979.49
2023-02-02T07:39:39.068Z,980.74
2023-02-02T07:40:39.086Z,982.51
2023-02-02T07:41:39.055Z,982.32
2023-02-02T07:42:39.050Z,981.24
2023-02-02T07:43:39.045Z,981.45
2023-02-02T07:44:39.025Z,981.05
2023-02-02T07:45:39.329Z,980.73
2023-02-02T07:46:39.061Z,978.57
2023-02-02T07:47:38.985Z,973.42
2023-02-02T07:48:38.985Z,974.17
2023-02-02T07:49:38.956Z,982.39
2023-02-02T07:50:38.975Z,982.54
2023-02-02T07:51:41.362Z,977.68
2023-02-02T07:52:38.934Z,973.59
2023-02-02T07:53:38.950Z,968.85
2023-02-02T07:54:38.905Z,965.64
2023-02-02T07:55:38.896Z,963.92
2023-02-02T07:56:38.908Z,962.49
2023-02-02T07:57:38.878Z,961.67
2023-02-02T07:58:38.859Z,962.03
2023-02-02T07:59:38.848Z,962.36
2023-02-02T08:00:38.849Z,963.88
2023-02-02T08:01:38.861Z,963.55
2023-02-02T08:02:38.884Z,964.23
2023-02-02T08:03:38.815Z,965.24
2023-02-02T08:04:38.831Z,968.01
2023-02-02T08:05:38.799Z,971.34
2023-02-02T08:06:38.788Z,977.03
2023-02-02T08:07:38.757Z,980.92
2023-02-02T08:08:38.771Z,978.04
2023-02-02T08:09:38.741Z,974.98
2023-02-02T08:10:38.732Z,974.61
2023-02-02T08:11:38.732Z,977.42
2023-02-02T08:12:38.709Z,978.85
2023-02-02T08:13:38.689Z,979.89
2023-02-02T08:14:38.698Z,980.39
2023-02-02T08:15:38.669Z,980.58
2023-02-02T08:16:38.724Z,984.30
2023-02-02T08:17:38.647Z,987.40
2023-02-02T08:18:38.658Z,989.43
2023-02-02T08:19:38.628Z,990.91
2023-02-02T08:20:38.630Z,991.98
2023-02-02T08:21:38.619Z,995.42
2023-02-02T08:22:38.599Z,994.29
2023-02-02T08:23:38.611Z,991.58
2023-02-02T08:24:38.578Z,991.46
2023-02-02T08:25:38.569Z,990.87
2023-02-02T08:26:38.580Z,991.96
2023-02-02T08:27:38.529Z,991.87
2023-02-02T08:28:38.557Z,992.66
2023-02-02T08:29:38.533Z,991.20
2023-02-02T08:30:38.876Z,989.22
2023-02-02T08:31:38.536Z,988.66
2023-02-02T08:32:38.830Z,988.80
2023-02-02T08:33:39.522Z,987.52
2023-02-02T08:34:38.469Z,986.11
2023-02-02T08:35:38.490Z,985.53
2023-02-02T08:36:38.444Z,985.26
2023-02-02T08:37:38.438Z,985.00
2023-02-02T08:38:38.693Z,984.88
2023-02-02T08:39:38.412Z,983.49
2023-02-02T08:40:38.400Z,984.09
2023-02-02T08:41:38.389Z,984.22
2023-02-02T08:42:38.374Z,984.55
2023-02-02T08:43:38.390Z,984.18
2023-02-02T08:45:01.387Z,986.00
2023-02-02T08:46:02.281Z,986.95
2023-02-02T08:46:39.401Z,988.75
2023-02-02T08:47:38.621Z,990.38
2023-02-02T08:48:38.344Z,993.23
2023-02-02T08:49:38.300Z,993.41
2023-02-02T08:50:38.286Z,993.10
2023-02-02T08:51:38.313Z,991.96
2023-02-02T08:52:38.260Z,992.75
2023-02-02T08:53:38.281Z,994.05
2023-02-02T08:54:38.245Z,992.10
2023-02-02T08:55:38.251Z,992.85
2023-02-02T08:56:38.233Z,994.44
2023-02-02T08:57:38.212Z,993.59
2023-02-02T08:58:38.207Z,993.13
2023-02-02T08:59:38.252Z,991.17
2023-02-02T09:00:38.186Z,990.46
2023-02-02T09:01:38.232Z,992.59
2023-02-02T09:02:38.219Z,993.54
2023-02-02T09:03:38.153Z,991.56
2023-02-02T09:04:38.135Z,990.11
2023-02-02T09:05:38.125Z,989.29
2023-02-02T09:06:38.127Z,991.06
2023-02-02T09:07:38.106Z,988.87
2023-02-02T09:08:38.125Z,988.35
2023-02-02T09:09:38.106Z,990.73
2023-02-02T09:10:38.074Z,994.68
2023-02-02T09:11:38.073Z,994.31
2023-02-02T09:12:38.084Z,994.86
2023-02-02T09:13:38.047Z,997.70
2023-02-02T09:14:38.055Z,1000.73
2023-02-02T09:15:38.018Z,1005.46
2023-02-02T09:16:38.084Z,1009.49
2023-02-02T09:17:37.985Z,1011.82
2023-02-02T09:18:38.032Z,1014.27
2023-02-02T09:19:37.963Z,1014.21
2023-02-02T09:20:37.962Z,1012.71
2023-02-02T09:21:38.238Z,1011.92
2023-02-02T09:22:38.243Z,1011.53
2023-02-02T09:23:37.953Z,1012.51
2023-02-02T09:24:37.930Z,1010.02
2023-02-02T09:25:37.943Z,1008.24
2023-02-02T09:26:37.898Z,1007.45
2023-02-02T09:27:37.887Z,1009.01
2023-02-02T09:28:40.629Z,1010.85
2023-02-02T09:29:37.852Z,1012.68
2023-02-02T09:30:37.898Z,1013.29
2023-02-02T09:31:37.859Z,1013.35
2023-02-02T09:32:37.835Z,1010.07
2023-02-02T09:33:37.837Z,1008.09
2023-02-02T09:34:40.041Z,1009.45
2023-02-02T09:35:37.806Z,1011.96
2023-02-02T09:36:37.781Z,1013.41
2023-02-02T09:37:37.824Z,1014.22
2023-02-02T09:38:37.768Z,1011.83
2023-02-02T09:39:37.778Z,1011.75
2023-02-02T09:40:37.725Z,1008.57
2023-02-02T09:41:37.825Z,1006.21
2023-02-02T09:42:37.755Z,1004.75
2023-02-02T09:43:37.694Z,1004.85
2023-02-02T09:44:37.726Z,997.34
2023-02-02T09:45:37.773Z,995.26
2023-02-02T09:46:37.711Z,996.55
2023-02-02T09:47:37.677Z,1001.12
2023-02-02T09:48:37.674Z,1003.88
2023-02-02T09:49:37.658Z,1004.55
2023-02-02T09:50:37.649Z,1002.75
2023-02-02T09:51:37.617Z,1007.96
2023-02-02T09:52:37.630Z,1014.63
2023-02-02T09:53:46.087Z,1017.03
2023-02-02T09:54:38.575Z,1022.90
2023-02-02T09:55:37.579Z,1020.65
2023-02-02T09:56:37.561Z,1022.80
2023-02-02T09:57:37.597Z,1024.56
2023-02-02T09:58:37.540Z,1015.01
2023-02-02T09:59:37.520Z,1011.65
2023-02-02T10:00:37.497Z,1004.05
2023-02-02T10:01:37.528Z,1009.91
2023-02-02T10:02:37.482Z,1017.21
2023-02-02T10:03:37.504Z,1023.93
2023-02-02T10:04:37.456Z,1026.08
2023-02-02T10:05:37.451Z,1027.94
2023-02-02T10:06:37.445Z,1018.90
2023-02-02T10:07:37.445Z,1011.02
2023-02-02T10:08:44.741Z,1010.44
2023-02-02T10:09:45.738Z,1009.24
2023-02-02T10:10:44.784Z,1011.12
2023-02-02T10:11:45.751Z,1016.19
2023-02-02T10:12:45.722Z,1024.65
2023-02-02T10:13:37.391Z,1024.99
2023-02-02T10:14:37.401Z,1025.29
2023-02-02T10:15:37.400Z,1024.57
2023-02-02T10:16:37.334Z,1021.33
2023-02-02T10:17:37.337Z,1018.85
2023-02-02T10:18:37.324Z,1019.43
2023-02-02T10:19:37.352Z,1019.52
2023-02-02T10:20:37.387Z,1020.71
2023-02-02T10:21:37.293Z,1022.79
2023-02-02T10:22:37.363Z,1025.61
2023-02-02T10:23:37.341Z,1025.73
2023-02-02T10:24:37.293Z,1022.71
2023-02-02T10:25:37.290Z,1030.34
2023-02-02T10:26:37.353Z,1035.05
2023-02-02T10:27:37.300Z,1031.41
2023-02-02T10:28:37.211Z,1019.58
2023-02-02T10:29:48.419Z,1024.31
2023-02-02T10:30:38.288Z,1031.73
2023-02-02T10:31:37.293Z,1035.63
2023-02-02T10:32:37.162Z,1036.36
2023-02-02T10:33:37.152Z,1034.10
2023-02-02T10:34:37.122Z,1033.98
2023-02-02T10:35:37.121Z,1031.18
2023-02-02T10:36:37.110Z,1031.29
2023-02-02T10:37:37.130Z,1036.72
2023-02-02T10:38:37.900Z,1035.24
2023-02-02T10:39:37.088Z,1034.93
2023-02-02T10:40:37.103Z,1036.88
2023-02-02T10:41:37.164Z,1033.20
2023-02-02T10:42:37.066Z,1031.60
2023-02-02T10:43:37.013Z,1025.46
2023-02-02T10:44:37.013Z,1027.41
2023-02-02T10:45:36.996Z,1030.03
2023-02-02T10:46:37.052Z,1031.88
2023-02-02T10:47:36.999Z,1032.16
2023-02-02T10:48:36.973Z,1031.16
2023-02-02T10:49:36.972Z,1030.12
2023-02-02T10:50:36.965Z,1031.47
2023-02-02T10:51:36.923Z,1031.10
2023-02-02T10:52:36.923Z,1029.70
2023-02-02T10:53:36.924Z,1022.30
2023-02-02T10:54:53.920Z,1020.57
2023-02-02T10:55:37.894Z,1026.74
2023-02-02T10:56:36.920Z,1029.76
2023-02-02T10:57:36.862Z,1030.28
2023-02-02T10:58:36.869Z,1027.32
2023-02-02T10:59:36.835Z,1028.09
2023-02-02T11:00:36.831Z,1026.72
2023-02-02T11:01:36.931Z,1026.83
2023-02-02T11:02:36.885Z,1028.30
2023-02-02T11:03:36.795Z,1026.82
2023-02-02T11:04:36.777Z,1024.04
2023-02-02T11:05:37.505Z,1023.90
2023-02-02T11:06:36.760Z,1022.85
2023-02-02T11:07:36.738Z,1024.30
2023-02-02T11:08:36.747Z,1024.49
2023-02-02T11:09:36.728Z,1025.51
2023-02-02T11:10:36.706Z,1026.67
2023-02-02T11:11:36.706Z,1022.81
2023-02-02T11:12:36.690Z,1023.42
2023-02-02T11:13:36.687Z,1023.00
2023-02-02T11:14:44.501Z,1022.87
2023-02-02T11:15:37.687Z,1021.98
2023-02-02T11:16:43.221Z,1018.42
2023-02-02T11:17:37.649Z,1017.01
2023-02-02T11:18:36.628Z,1015.37
2023-02-02T11:19:36.607Z,1010.17
2023-02-02T11:20:36.598Z,1010.82
2023-02-02T11:21:36.588Z,1013.04
2023-02-02T11:22:36.581Z,1013.51
2023-02-02T11:23:36.600Z,1011.40
2023-02-02T11:24:36.564Z,1012.81
2023-02-02T11:25:36.550Z,1011.14
2023-02-02T11:26:36.549Z,1008.43
2023-02-02T11:27:36.509Z,1012.27
2023-02-02T11:28:36.518Z,1013.56
2023-02-02T11:29:36.498Z,1007.80
2023-02-02T11:30:36.483Z,1002.76
2023-02-02T11:31:36.570Z,997.90
2023-02-02T11:32:36.460Z,994.69
2023-02-02T11:33:36.477Z,997.86
2023-02-02T11:34:36.438Z,1000.84
2023-02-02T11:35:36.467Z,1000.69
2023-02-02T11:36:36.815Z,994.58
2023-02-02T11:37:36.403Z,990.41
2023-02-02T11:38:36.408Z,993.24
2023-02-02T11:39:36.373Z,992.45
2023-02-02T11:40:36.396Z,998.04
2023-02-02T11:41:36.379Z,997.19
2023-02-02T11:42:36.340Z,996.21
2023-02-02T11:43:36.368Z,993.19
2023-02-02T11:44:36.333Z,998.93
2023-02-02T11:45:36.314Z,1004.47
2023-02-02T11:46:36.312Z,1006.21
2023-02-02T11:47:36.278Z,1005.99
2023-02-02T11:48:36.291Z,1003.80
2023-02-02T11:49:36.288Z,1001.53
2023-02-02T11:50:36.256Z,1000.61
2023-02-02T11:51:36.246Z,997.10
2023-02-02T11:52:36.221Z,989.08
2023-02-02T11:53:36.221Z,987.04
2023-02-02T11:54:36.222Z,989.27
2023-02-02T11:55:36.208Z,984.16
2023-02-02T11:56:36.187Z,982.92
2023-02-02T11:57:36.524Z,985.37
2023-02-02T11:58:36.173Z,987.58
2023-02-02T11:59:36.172Z,990.15
2023-02-02T12:00:36.213Z,996.47
2023-02-02T12:01:36.135Z,999.97
2023-02-02T12:02:36.184Z,998.17
2023-02-02T12:03:36.108Z,998.92
2023-02-02T12:04:36.159Z,1001.77
2023-02-02T12:05:36.126Z,995.61
2023-02-02T12:06:36.077Z,996.66
2023-02-02T12:07:36.064Z,992.70
2023-02-02T12:08:36.056Z,988.52
2023-02-02T12:09:36.024Z,988.84
2023-02-02T12:10:36.853Z,988.56
2023-02-02T12:11:36.071Z,985.67
2023-02-02T12:12:36.066Z,988.63
2023-02-02T12:13:35.993Z,986.29
2023-02-02T12:14:36.012Z,997.27
2023-02-02T12:15:35.966Z,1005.70
2023-02-02T12:16:36.023Z,1005.93
2023-02-02T12:17:35.934Z,1005.02
2023-02-02T12:18:35.942Z,1003.55
2023-02-02T12:19:35.939Z,1000.76
2023-02-02T12:20:35.906Z,999.63
2023-02-02T12:21:35.887Z,997.56
2023-02-02T12:22:35.881Z,988.80
2023-02-02T12:23:35.887Z,996.25